createdAt,value
2017-11-12T00:00:51.290Z,0
2017-11-12T00:01:51.892Z,0
2017-11-12T00:02:52.502Z,0
2017-11-12T00:03:53.140Z,0
2017-11-12T00:04:53.741Z,0
2017-11-12T00:05:54.344Z,0
2017-11-12T00:06:54.948Z,0
2017-11-12T00:07:55.557Z,0
2017-11-12T00:08:56.162Z,0
2017-11-12T00:09:56.766Z,0
2017-11-12T00:10:57.372Z,0
2017-11-12T00:11:57.978Z,0
2017-11-12T00:12:58.587Z,0
2017-11-12T00:13:59.188Z,0
2017-11-12T00:14:59.823Z,0
2017-11-12T00:16:00.430Z,0
2017-11-12T00:17:01.034Z,0
2017-11-12T00:18:01.639Z,0
2017-11-12T00:19:02.243Z,0
2017-11-12T00:20:02.849Z,0
2017-11-12T00:21:03.457Z,0
2017-11-12T00:22:04.063Z,0
2017-11-12T00:23:04.676Z,0
2017-11-12T00:24:05.277Z,0
2017-11-12T00:25:05.878Z,0
2017-11-12T00:26:06.491Z,0
2017-11-12T00:27:07.125Z,0
2017-11-12T00:28:07.731Z,0
2017-11-12T00:29:08.335Z,0
2017-11-12T00:30:08.939Z,0
2017-11-12T00:31:09.545Z,0
2017-11-12T00:32:10.155Z,0
2017-11-12T00:33:10.757Z,0
2017-11-12T00:34:11.361Z,0
2017-11-12T00:35:11.966Z,0
2017-11-12T00:36:12.568Z,0
2017-11-12T00:37:13.174Z,0
2017-11-12T00:38:13.779Z,0
2017-11-12T00:39:14.390Z,0
2017-11-12T00:40:14.993Z,0
2017-11-12T00:41:15.598Z,0
2017-11-12T00:42:16.209Z,0
2017-11-12T00:43:16.812Z,0
2017-11-12T00:44:17.418Z,0
2017-11-12T00:45:18.023Z,0
2017-11-12T00:46:18.626Z,0
2017-11-12T00:47:19.261Z,0
2017-11-12T00:48:19.866Z,0
2017-11-12T00:49:20.469Z,0
2017-11-12T00:50:21.079Z,0
2017-11-12T00:51:21.686Z,0
2017-11-12T00:52:22.292Z,0
2017-11-12T00:53:22.902Z,0
2017-11-12T00:54:23.541Z,0
2017-11-12T00:55:24.148Z,0
2017-11-12T00:56:24.752Z,0
2017-11-12T00:57:25.389Z,0
2017-11-12T00:58:25.994Z,0
2017-11-12T00:59:26.628Z,0
2017-11-12T01:00:27.233Z,0
2017-11-12T01:01:27.875Z,0
2017-11-12T01:02:28.485Z,0
2017-11-12T01:03:29.090Z,0
2017-11-12T01:04:29.709Z,0
2017-11-12T01:05:30.306Z,0
2017-11-12T01:06:30.911Z,0
2017-11-12T01:07:31.516Z,0
2017-11-12T01:08:32.120Z,0
2017-11-12T01:09:32.759Z,0
2017-11-12T01:10:33.367Z,0
2017-11-12T01:11:33.971Z,0
2017-11-12T01:12:34.578Z,0
2017-11-12T01:13:35.181Z,0
2017-11-12T01:14:35.788Z,0
2017-11-12T01:15:36.398Z,0
2017-11-12T01:16:37.006Z,0
2017-11-12T01:17:37.644Z,0
2017-11-12T01:18:38.253Z,0
2017-11-12T01:19:38.887Z,0
2017-11-12T01:20:39.493Z,0
2017-11-12T01:21:40.114Z,0
2017-11-12T01:22:40.747Z,0
2017-11-12T01:23:41.381Z,0
2017-11-12T01:24:41.986Z,0
2017-11-12T01:25:42.590Z,0
2017-11-12T01:26:43.199Z,0
2017-11-12T01:27:43.803Z,0
2017-11-12T01:28:44.417Z,0
2017-11-12T01:29:45.013Z,0
2017-11-12T01:30:45.618Z,0
2017-11-12T01:31:46.222Z,0
2017-11-12T01:32:46.827Z,0
2017-11-12T01:33:47.436Z,0
2017-11-12T01:34:48.045Z,0
2017-11-12T01:35:48.648Z,0
2017-11-12T01:36:49.292Z,0
2017-11-12T01:37:49.891Z,0
2017-11-12T01:38:50.528Z,0
2017-11-12T01:39:51.136Z,0
2017-11-12T01:40:51.742Z,0
2017-11-12T01:41:52.352Z,0
2017-11-12T01:42:52.952Z,0
2017-11-12T01:43:53.563Z,0
2017-11-12T01:44:54.167Z,0
2017-11-12T01:45:54.770Z,0
2017-11-12T01:46:55.380Z,0
2017-11-12T01:47:55.981Z,0
2017-11-12T01:48:56.591Z,0
2017-11-12T01:49:57.195Z,0
2017-11-12T01:50:57.801Z,0
2017-11-12T01:51:58.442Z,0
2017-11-12T01:52:59.045Z,0
2017-11-12T01:53:59.650Z,0
2017-11-12T01:55:00.254Z,0
2017-11-12T01:56:00.868Z,0
2017-11-12T01:57:01.494Z,0
2017-11-12T01:58:02.107Z,0
2017-11-12T01:59:02.714Z,0
2017-11-12T02:00:03.318Z,0
2017-11-12T02:01:03.923Z,0
2017-11-12T02:02:04.560Z,0
2017-11-12T02:03:05.167Z,0
2017-11-12T02:04:05.772Z,0
2017-11-12T02:05:06.373Z,0
2017-11-12T02:06:06.977Z,0
2017-11-12T02:07:07.591Z,0
2017-11-12T02:08:08.222Z,0
2017-11-12T02:09:08.827Z,0
2017-11-12T02:10:09.432Z,0
2017-11-12T02:11:10.037Z,0
2017-11-12T02:12:10.641Z,0
2017-11-12T02:13:11.258Z,0
2017-11-12T02:14:11.865Z,0
2017-11-12T02:15:12.466Z,0
2017-11-12T02:16:13.076Z,0
2017-11-12T02:17:13.679Z,0
2017-11-12T02:18:14.283Z,0
2017-11-12T02:19:14.916Z,0
2017-11-12T02:20:15.560Z,0
2017-11-12T02:21:16.157Z,0
2017-11-12T02:22:16.768Z,0
2017-11-12T02:23:17.369Z,0
2017-11-12T02:24:17.976Z,0
2017-11-12T02:25:18.580Z,0
2017-11-12T02:26:19.186Z,0
2017-11-12T02:27:19.793Z,0
2017-11-12T02:28:20.399Z,0
2017-11-12T02:29:21.004Z,0
2017-11-12T02:30:21.609Z,0
2017-11-12T02:31:22.219Z,0
2017-11-12T02:32:22.857Z,0
2017-11-12T02:33:23.466Z,0
2017-11-12T02:34:24.070Z,0
2017-11-12T02:35:24.679Z,0
2017-11-12T02:36:25.281Z,0
2017-11-12T02:37:25.887Z,0
2017-11-12T02:38:26.491Z,0
2017-11-12T02:39:27.096Z,0
2017-11-12T02:40:27.698Z,0
2017-11-12T02:41:28.307Z,0
2017-11-12T02:42:28.910Z,0
2017-11-12T02:43:29.513Z,0
2017-11-12T02:44:30.125Z,0
2017-11-12T02:45:30.736Z,0
2017-11-12T02:46:31.335Z,0
2017-11-12T02:47:31.962Z,0
2017-11-12T02:48:32.543Z,0
2017-11-12T02:49:33.149Z,0
2017-11-12T02:50:33.756Z,0
2017-11-12T02:51:34.358Z,0
2017-11-12T02:52:34.962Z,0
2017-11-12T02:53:35.567Z,0
2017-11-12T02:54:36.171Z,0
2017-11-12T02:55:36.774Z,0
2017-11-12T02:56:37.378Z,0
2017-11-12T02:57:37.983Z,0
2017-11-12T02:58:38.596Z,0
2017-11-12T02:59:39.199Z,0
2017-11-12T03:00:39.814Z,0
2017-11-12T03:01:40.410Z,0
2017-11-12T03:02:41.014Z,0
2017-11-12T03:03:41.626Z,0
2017-11-12T03:04:42.225Z,0
2017-11-12T03:05:42.829Z,0
2017-11-12T03:06:43.433Z,0
2017-11-12T03:07:44.042Z,0
2017-11-12T03:08:44.650Z,0
2017-11-12T03:09:45.256Z,0
2017-11-12T03:10:45.860Z,0
2017-11-12T03:11:46.466Z,0
2017-11-12T03:12:47.073Z,0
2017-11-12T03:13:47.683Z,0
2017-11-12T03:14:48.285Z,0
2017-11-12T03:15:48.921Z,0
2017-11-12T03:16:49.532Z,0
2017-11-12T03:17:50.140Z,0
2017-11-12T03:18:50.774Z,0
2017-11-12T03:19:51.378Z,0
2017-11-12T03:20:51.989Z,0
2017-11-12T03:21:52.596Z,0
2017-11-12T03:22:53.199Z,0
2017-11-12T03:23:53.804Z,0
2017-11-12T03:24:54.412Z,0
2017-11-12T03:25:55.017Z,0
2017-11-12T03:26:55.624Z,0
2017-11-12T03:27:56.230Z,0
2017-11-12T03:28:56.835Z,0
2017-11-12T03:29:57.440Z,0
2017-11-12T03:30:58.050Z,0
2017-11-12T03:31:58.684Z,0
2017-11-12T03:32:59.289Z,0
2017-11-12T03:33:59.895Z,0
2017-11-12T03:35:00.500Z,0
2017-11-12T03:36:01.111Z,0
2017-11-12T03:37:01.712Z,0
2017-11-12T03:38:02.317Z,0
2017-11-12T03:39:02.920Z,0
2017-11-12T03:40:03.533Z,0
2017-11-12T03:41:04.137Z,0
2017-11-12T03:42:04.741Z,0
2017-11-12T03:43:05.352Z,0
2017-11-12T03:44:05.956Z,0
2017-11-12T03:45:06.566Z,0
2017-11-12T03:46:07.164Z,0
2017-11-12T03:47:07.778Z,0
2017-11-12T03:48:08.417Z,0
2017-11-12T03:49:09.024Z,0
2017-11-12T03:50:09.625Z,0
2017-11-12T03:51:10.231Z,0
2017-11-12T03:52:10.835Z,0
2017-11-12T03:53:11.445Z,0
2017-11-12T03:54:12.058Z,0
2017-11-12T03:55:12.661Z,0
2017-11-12T03:56:13.265Z,0
2017-11-12T03:57:13.871Z,0
2017-11-12T03:58:14.477Z,0
2017-11-12T03:59:15.082Z,0
2017-11-12T04:00:15.685Z,0
2017-11-12T04:01:16.291Z,0
2017-11-12T04:02:16.895Z,0
2017-11-12T04:03:17.532Z,0
2017-11-12T04:04:18.136Z,0
2017-11-12T04:05:18.740Z,0
2017-11-12T04:06:19.344Z,0
2017-11-12T04:07:19.949Z,0
2017-11-12T04:08:20.552Z,0
2017-11-12T04:09:21.160Z,0
2017-11-12T04:10:21.764Z,0
2017-11-12T04:11:22.376Z,0
2017-11-12T04:12:22.978Z,0
2017-11-12T04:13:23.582Z,0
2017-11-12T04:14:24.187Z,0
2017-11-12T04:15:24.793Z,0
2017-11-12T04:16:25.399Z,0
2017-11-12T04:17:26.002Z,0
2017-11-12T04:18:26.612Z,0
2017-11-12T04:19:27.221Z,0
2017-11-12T04:20:27.827Z,0
2017-11-12T04:21:28.431Z,0
2017-11-12T04:22:29.073Z,0
2017-11-12T04:23:29.677Z,0
2017-11-12T04:24:30.283Z,0
2017-11-12T04:25:30.890Z,0
2017-11-12T04:26:31.496Z,0
2017-11-12T04:27:32.133Z,0
2017-11-12T04:28:32.770Z,0
2017-11-12T04:29:33.377Z,0
2017-11-12T04:30:33.983Z,0
2017-11-12T04:31:34.588Z,0
2017-11-12T04:32:35.225Z,0
2017-11-12T04:33:35.841Z,0
2017-11-12T04:34:36.477Z,0
2017-11-12T04:35:37.082Z,0
2017-11-12T04:36:37.695Z,0
2017-11-12T04:37:38.322Z,0
2017-11-12T04:38:38.928Z,0
2017-11-12T04:39:39.535Z,0
2017-11-12T04:40:40.140Z,0
2017-11-12T04:41:40.744Z,0
2017-11-12T04:42:41.356Z,0
2017-11-12T04:43:41.959Z,0
2017-11-12T04:44:42.562Z,0
2017-11-12T04:45:43.166Z,0
2017-11-12T04:46:43.800Z,0
2017-11-12T04:47:44.406Z,0
2017-11-12T04:48:45.011Z,0
2017-11-12T04:49:45.619Z,0
2017-11-12T04:50:46.226Z,0
2017-11-12T04:51:46.826Z,0
2017-11-12T04:52:47.431Z,0
2017-11-12T04:53:48.042Z,0
2017-11-12T04:54:48.645Z,0
2017-11-12T04:55:49.291Z,0
2017-11-12T04:56:49.926Z,0
2017-11-12T04:57:50.532Z,0
2017-11-12T04:58:51.140Z,0
2017-11-12T04:59:51.747Z,0
2017-11-12T05:00:52.357Z,0
2017-11-12T05:01:52.963Z,0
2017-11-12T05:02:53.566Z,0
2017-11-12T05:03:54.206Z,0
2017-11-12T05:04:54.808Z,0
2017-11-12T05:05:55.413Z,0
2017-11-12T05:06:56.018Z,0
2017-11-12T05:07:56.629Z,0
2017-11-12T05:08:57.235Z,0
2017-11-12T05:09:57.838Z,0
2017-11-12T05:10:58.444Z,0
2017-11-12T05:11:59.050Z,0
2017-11-12T05:12:59.662Z,0
2017-11-12T05:14:00.266Z,0
2017-11-12T05:15:00.870Z,0
2017-11-12T05:16:01.476Z,0
2017-11-12T05:17:02.105Z,0
2017-11-12T05:18:02.688Z,0
2017-11-12T05:19:03.322Z,0
2017-11-12T05:20:03.933Z,0
2017-11-12T05:21:04.536Z,0
2017-11-12T05:22:05.174Z,0
2017-11-12T05:23:05.778Z,0
2017-11-12T05:24:06.382Z,0
2017-11-12T05:25:06.996Z,0
2017-11-12T05:26:07.593Z,0
2017-11-12T05:27:08.202Z,0
2017-11-12T05:28:08.804Z,0
2017-11-12T05:29:09.427Z,0
2017-11-12T05:30:10.033Z,0
2017-11-12T05:31:10.637Z,0
2017-11-12T05:32:11.243Z,0
2017-11-12T05:33:11.847Z,0
2017-11-12T05:34:12.458Z,0
2017-11-12T05:35:13.098Z,0
2017-11-12T05:36:13.704Z,0
2017-11-12T05:37:14.312Z,0
2017-11-12T05:38:14.917Z,0
2017-11-12T05:39:15.533Z,0
2017-11-12T05:40:16.135Z,0
2017-11-12T05:41:16.737Z,0
2017-11-12T05:42:17.381Z,0
2017-11-12T05:43:17.986Z,0
2017-11-12T05:44:18.592Z,0
2017-11-12T05:45:19.202Z,0
2017-11-12T05:46:19.802Z,0
2017-11-12T05:47:20.408Z,0
2017-11-12T05:48:21.014Z,0
2017-11-12T05:49:21.617Z,0
2017-11-12T05:50:22.266Z,0
2017-11-12T05:51:22.860Z,0
2017-11-12T05:52:23.463Z,0
2017-11-12T05:53:24.071Z,0
2017-11-12T05:54:24.683Z,0
2017-11-12T05:55:25.290Z,0
2017-11-12T05:56:25.896Z,0
2017-11-12T05:57:26.505Z,0
2017-11-12T05:58:27.140Z,0
2017-11-12T05:59:27.746Z,0
2017-11-12T06:00:28.352Z,0
2017-11-12T06:01:28.959Z,0
2017-11-12T06:02:29.566Z,0
2017-11-12T06:03:30.167Z,0
2017-11-12T06:04:30.770Z,0
2017-11-12T06:05:31.407Z,0
2017-11-12T06:06:32.046Z,0
2017-11-12T06:07:32.655Z,0
2017-11-12T06:08:33.260Z,0
2017-11-12T06:09:33.863Z,0
2017-11-12T06:10:34.471Z,0
2017-11-12T06:11:35.073Z,0
2017-11-12T06:12:35.680Z,0
2017-11-12T06:13:36.291Z,4
2017-11-12T06:14:36.926Z,0
2017-11-12T06:15:37.535Z,0
2017-11-12T06:16:38.143Z,4
2017-11-12T06:17:38.780Z,0
2017-11-12T06:18:39.389Z,4
2017-11-12T06:19:39.994Z,4
2017-11-12T06:20:40.602Z,0
2017-11-12T06:21:41.210Z,4
2017-11-12T06:22:41.812Z,4
2017-11-12T06:23:42.414Z,4
2017-11-12T06:24:43.019Z,4
2017-11-12T06:25:43.627Z,4
2017-11-12T06:26:44.235Z,4
2017-11-12T06:27:44.835Z,4
2017-11-12T06:28:45.447Z,8
2017-11-12T06:29:46.056Z,8
2017-11-12T06:30:46.658Z,4
2017-11-12T06:31:47.262Z,8
2017-11-12T06:32:47.867Z,8
2017-11-12T06:33:48.473Z,8
2017-11-12T06:34:49.078Z,8
2017-11-12T06:35:49.688Z,8
2017-11-12T06:36:50.291Z,12
2017-11-12T06:37:50.900Z,12
2017-11-12T06:38:51.514Z,12
2017-11-12T06:39:52.151Z,8
2017-11-12T06:40:52.788Z,12
2017-11-12T06:41:53.394Z,12
2017-11-12T06:42:54.001Z,16
2017-11-12T06:43:54.606Z,16
2017-11-12T06:44:55.214Z,12
2017-11-12T06:45:55.849Z,16
2017-11-12T06:46:56.459Z,16
2017-11-12T06:47:57.096Z,20
2017-11-12T06:48:57.702Z,20
2017-11-12T06:49:58.308Z,24
2017-11-12T06:50:58.921Z,24
2017-11-12T06:51:59.523Z,24
2017-11-12T06:53:00.130Z,28
2017-11-12T06:54:00.769Z,32
2017-11-12T06:55:01.405Z,32
2017-11-12T06:56:02.011Z,32
2017-11-12T06:57:02.618Z,32
2017-11-12T06:58:03.224Z,36
2017-11-12T06:59:03.830Z,36
2017-11-12T07:00:04.434Z,40
2017-11-12T07:01:05.058Z,36
2017-11-12T07:02:05.715Z,36
2017-11-12T07:03:06.319Z,36
2017-11-12T07:04:06.923Z,32
2017-11-12T07:05:07.532Z,32
2017-11-12T07:06:08.138Z,32
2017-11-12T07:07:08.744Z,32
2017-11-12T07:08:09.385Z,32
2017-11-12T07:09:10.025Z,32
2017-11-12T07:10:10.626Z,32
2017-11-12T07:11:11.237Z,36
2017-11-12T07:12:11.845Z,36
2017-11-12T07:13:12.450Z,40
2017-11-12T07:14:13.055Z,44
2017-11-12T07:15:13.670Z,44
2017-11-12T07:16:14.271Z,48
2017-11-12T07:17:14.875Z,52
2017-11-12T07:18:15.481Z,52
2017-11-12T07:19:16.092Z,56
2017-11-12T07:20:16.728Z,60
2017-11-12T07:21:17.338Z,60
2017-11-12T07:22:17.946Z,64
2017-11-12T07:23:18.553Z,64
2017-11-12T07:24:19.191Z,72
2017-11-12T07:25:19.803Z,80
2017-11-12T07:26:20.406Z,84
2017-11-12T07:27:21.014Z,92
2017-11-12T07:28:21.640Z,100
2017-11-12T07:29:22.231Z,104
2017-11-12T07:30:22.848Z,100
2017-11-12T07:31:23.459Z,96
2017-11-12T07:32:24.062Z,96
2017-11-12T07:33:24.670Z,96
2017-11-12T07:34:25.282Z,96
2017-11-12T07:35:25.917Z,96
2017-11-12T07:36:26.525Z,96
2017-11-12T07:37:27.131Z,96
2017-11-12T07:38:27.738Z,100
2017-11-12T07:39:28.350Z,100
2017-11-12T07:40:28.991Z,96
2017-11-12T07:41:29.597Z,96
2017-11-12T07:42:30.211Z,92
2017-11-12T07:43:30.810Z,88
2017-11-12T07:44:31.467Z,88
2017-11-12T07:45:32.079Z,92
2017-11-12T07:46:32.729Z,108
2017-11-12T07:47:33.337Z,120
2017-11-12T07:48:33.941Z,128
2017-11-12T07:49:34.547Z,128
2017-11-12T07:50:35.155Z,120
2017-11-12T07:51:35.766Z,116
2017-11-12T07:52:36.377Z,120
2017-11-12T07:53:36.977Z,116
2017-11-12T07:54:37.590Z,112
2017-11-12T07:55:38.227Z,108
2017-11-12T07:56:38.836Z,116
2017-11-12T07:57:39.448Z,116
2017-11-12T07:58:40.059Z,124
2017-11-12T07:59:40.696Z,120
2017-11-12T08:00:41.303Z,116
2017-11-12T08:01:41.914Z,124
2017-11-12T08:02:42.519Z,128
2017-11-12T08:03:43.134Z,128
2017-11-12T08:04:43.739Z,132
2017-11-12T08:05:44.383Z,132
2017-11-12T08:06:44.987Z,124
2017-11-12T08:07:45.596Z,124
2017-11-12T08:08:46.204Z,120
2017-11-12T08:09:46.811Z,136
2017-11-12T08:10:47.419Z,144
2017-11-12T08:11:48.029Z,144
2017-11-12T08:12:48.637Z,140
2017-11-12T08:13:49.250Z,140
2017-11-12T08:14:49.857Z,136
2017-11-12T08:15:50.464Z,140
2017-11-12T08:16:51.073Z,144
2017-11-12T08:17:51.682Z,148
2017-11-12T08:18:52.299Z,148
2017-11-12T08:19:52.900Z,152
2017-11-12T08:20:53.510Z,148
2017-11-12T08:21:54.117Z,140
2017-11-12T08:22:54.728Z,136
2017-11-12T08:23:55.341Z,140
2017-11-12T08:24:55.948Z,140
2017-11-12T08:25:56.561Z,140
2017-11-12T08:26:57.170Z,136
2017-11-12T08:27:57.776Z,140
2017-11-12T08:28:58.385Z,136
2017-11-12T08:29:58.997Z,140
2017-11-12T08:30:59.602Z,148
2017-11-12T08:32:00.209Z,156
2017-11-12T08:33:00.818Z,160
2017-11-12T08:34:01.624Z,164
2017-11-12T08:35:02.045Z,160
2017-11-12T08:36:02.650Z,160
2017-11-12T08:37:03.258Z,156
2017-11-12T08:38:03.902Z,156
2017-11-12T08:39:04.508Z,156
2017-11-12T08:40:05.124Z,152
2017-11-12T08:41:05.726Z,156
2017-11-12T08:42:06.365Z,160
2017-11-12T08:43:06.982Z,172
2017-11-12T08:44:07.587Z,172
2017-11-12T08:45:08.196Z,172
2017-11-12T08:46:08.805Z,172
2017-11-12T08:47:09.414Z,168
2017-11-12T08:48:10.023Z,156
2017-11-12T08:49:10.633Z,152
2017-11-12T08:50:11.242Z,160
2017-11-12T08:51:11.850Z,168
2017-11-12T08:52:12.460Z,172
2017-11-12T08:53:13.067Z,160
2017-11-12T08:54:13.677Z,216
2017-11-12T08:55:14.285Z,220
2017-11-12T08:56:14.901Z,232
2017-11-12T08:57:15.507Z,268
2017-11-12T08:58:16.118Z,244
2017-11-12T08:59:16.733Z,240
2017-11-12T09:00:17.337Z,232
2017-11-12T09:01:17.948Z,204
2017-11-12T09:02:18.557Z,152
2017-11-12T09:03:19.166Z,160
2017-11-12T09:04:19.775Z,176
2017-11-12T09:05:20.383Z,196
2017-11-12T09:06:20.993Z,224
2017-11-12T09:07:21.610Z,228
2017-11-12T09:08:22.213Z,292
2017-11-12T09:09:22.828Z,224
2017-11-12T09:10:23.433Z,268
2017-11-12T09:11:24.047Z,248
2017-11-12T09:12:24.687Z,224
2017-11-12T09:13:25.296Z,352
2017-11-12T09:14:25.906Z,524
2017-11-12T09:15:26.516Z,400
2017-11-12T09:16:27.128Z,228
2017-11-12T09:17:27.734Z,268
2017-11-12T09:18:28.343Z,256
2017-11-12T09:19:28.959Z,372
2017-11-12T09:20:29.559Z,380
2017-11-12T09:21:30.168Z,648
2017-11-12T09:22:30.808Z,644
2017-11-12T09:23:31.422Z,604
2017-11-12T09:24:32.030Z,452
2017-11-12T09:25:32.638Z,244
2017-11-12T09:26:33.247Z,260
2017-11-12T09:27:33.862Z,684
2017-11-12T09:28:34.473Z,768
2017-11-12T09:29:35.079Z,780
2017-11-12T09:30:35.689Z,244
2017-11-12T09:31:36.305Z,268
2017-11-12T09:32:36.910Z,776
2017-11-12T09:33:37.520Z,660
2017-11-12T09:34:38.130Z,796
2017-11-12T09:35:38.744Z,288
2017-11-12T09:36:39.357Z,828
2017-11-12T09:37:39.963Z,856
2017-11-12T09:38:40.574Z,424
2017-11-12T09:39:41.186Z,888
2017-11-12T09:40:41.791Z,508
2017-11-12T09:41:42.399Z,976
2017-11-12T09:42:43.015Z,832
2017-11-12T09:43:43.630Z,516
2017-11-12T09:44:44.242Z,932
2017-11-12T09:45:44.850Z,924
2017-11-12T09:46:45.459Z,960
2017-11-12T09:47:46.070Z,948
2017-11-12T09:48:46.683Z,952
2017-11-12T09:49:47.291Z,976
2017-11-12T09:50:47.901Z,980
2017-11-12T09:51:48.520Z,316
2017-11-12T09:52:49.160Z,548
2017-11-12T09:53:49.768Z,1028
2017-11-12T09:54:50.380Z,1008
2017-11-12T09:55:50.993Z,1020
2017-11-12T09:56:51.605Z,1024
2017-11-12T09:57:52.221Z,636
2017-11-12T09:58:52.831Z,1028
2017-11-12T09:59:53.442Z,1036
2017-11-12T10:00:54.090Z,1040
2017-11-12T10:01:54.730Z,1044
2017-11-12T10:02:55.342Z,1068
2017-11-12T10:03:55.985Z,1096
2017-11-12T10:04:56.597Z,656
2017-11-12T10:05:57.238Z,1092
2017-11-12T10:06:57.851Z,1184
2017-11-12T10:07:58.464Z,624
2017-11-12T10:08:59.082Z,508
2017-11-12T10:09:59.690Z,528
2017-11-12T10:11:00.304Z,1220
2017-11-12T10:12:00.917Z,1200
2017-11-12T10:13:01.529Z,1224
2017-11-12T10:14:02.171Z,1248
2017-11-12T10:15:02.815Z,1248
2017-11-12T10:16:03.429Z,996
2017-11-12T10:17:04.046Z,1276
2017-11-12T10:18:04.702Z,1288
2017-11-12T10:19:05.301Z,1312
2017-11-12T10:20:05.912Z,1128
2017-11-12T10:21:06.524Z,796
2017-11-12T10:22:07.139Z,1292
2017-11-12T10:23:07.756Z,1292
2017-11-12T10:24:08.366Z,1292
2017-11-12T10:25:08.982Z,1268
2017-11-12T10:26:09.595Z,1256
2017-11-12T10:27:10.210Z,1252
2017-11-12T10:28:10.827Z,1272
2017-11-12T10:29:11.442Z,1092
2017-11-12T10:30:12.061Z,1296
2017-11-12T10:31:12.714Z,956
2017-11-12T10:32:13.391Z,1380
2017-11-12T10:33:14.001Z,848
2017-11-12T10:34:14.615Z,1332
2017-11-12T10:35:15.230Z,1356
2017-11-12T10:36:15.844Z,624
2017-11-12T10:37:16.470Z,1416
2017-11-12T10:38:17.145Z,1420
2017-11-12T10:39:17.740Z,1332
2017-11-12T10:40:18.349Z,1292
2017-11-12T10:41:18.963Z,1068
2017-11-12T10:42:19.580Z,568
2017-11-12T10:43:20.195Z,1288
2017-11-12T10:44:20.837Z,572
2017-11-12T10:45:21.451Z,1168
2017-11-12T10:46:22.067Z,1056
2017-11-12T10:47:22.687Z,1348
2017-11-12T10:48:23.298Z,1380
2017-11-12T10:49:23.913Z,1356
2017-11-12T10:50:24.557Z,452
2017-11-12T10:51:25.171Z,432
2017-11-12T10:52:25.807Z,460
2017-11-12T10:53:26.395Z,536
2017-11-12T10:54:27.037Z,472
2017-11-12T10:55:27.650Z,1080
2017-11-12T10:56:28.294Z,932
2017-11-12T10:57:28.911Z,436
2017-11-12T10:58:29.528Z,364
2017-11-12T10:59:30.132Z,380
2017-11-12T11:00:30.748Z,300
2017-11-12T11:01:31.359Z,280
2017-11-12T11:02:31.976Z,260
2017-11-12T11:03:32.591Z,244
2017-11-12T11:04:33.200Z,240
2017-11-12T11:05:33.825Z,248
2017-11-12T11:06:34.424Z,244
2017-11-12T11:07:35.040Z,260
2017-11-12T11:08:35.648Z,264
2017-11-12T11:09:36.262Z,260
2017-11-12T11:10:36.871Z,240
2017-11-12T11:11:37.514Z,216
2017-11-12T11:12:38.125Z,200
2017-11-12T11:13:38.737Z,192
2017-11-12T11:14:39.349Z,188
2017-11-12T11:15:39.962Z,192
2017-11-12T11:16:40.605Z,192
2017-11-12T11:17:41.248Z,196
2017-11-12T11:18:41.859Z,196
2017-11-12T11:19:42.476Z,200
2017-11-12T11:20:43.084Z,204
2017-11-12T11:21:43.703Z,208
2017-11-12T11:22:44.313Z,220
2017-11-12T11:23:44.926Z,248
2017-11-12T11:24:45.535Z,368
2017-11-12T11:25:46.148Z,460
2017-11-12T11:26:46.809Z,544
2017-11-12T11:27:47.448Z,1076
2017-11-12T11:28:48.089Z,1280
2017-11-12T11:29:48.700Z,1216
2017-11-12T11:30:49.320Z,780
2017-11-12T11:31:49.976Z,392
2017-11-12T11:32:50.589Z,400
2017-11-12T11:33:51.199Z,588
2017-11-12T11:34:51.816Z,564
2017-11-12T11:35:52.459Z,472
2017-11-12T11:36:53.068Z,456
2017-11-12T11:37:53.685Z,300
2017-11-12T11:38:54.294Z,328
2017-11-12T11:39:54.908Z,460
2017-11-12T11:40:55.524Z,400
2017-11-12T11:41:56.173Z,316
2017-11-12T11:42:56.808Z,320
2017-11-12T11:43:57.464Z,524
2017-11-12T11:44:58.073Z,900
2017-11-12T11:45:58.677Z,916
2017-11-12T11:46:59.290Z,1004
2017-11-12T11:47:59.908Z,1044
2017-11-12T11:49:00.519Z,1168
2017-11-12T11:50:01.134Z,1256
2017-11-12T11:51:01.745Z,1284
2017-11-12T11:52:02.390Z,1264
2017-11-12T11:53:03.039Z,1260
2017-11-12T11:54:03.655Z,1276
2017-11-12T11:55:04.266Z,1236
2017-11-12T11:56:04.910Z,1180
2017-11-12T11:57:05.523Z,708
2017-11-12T11:58:06.133Z,928
2017-11-12T11:59:06.749Z,1216
2017-11-12T12:00:07.363Z,1084
2017-11-12T12:01:07.975Z,1012
2017-11-12T12:02:08.594Z,832
2017-11-12T12:03:09.202Z,592
2017-11-12T12:04:09.816Z,392
2017-11-12T12:05:10.430Z,396
2017-11-12T12:06:11.042Z,348
2017-11-12T12:07:11.692Z,304
2017-11-12T12:08:12.303Z,256
2017-11-12T12:09:12.912Z,212
2017-11-12T12:10:13.527Z,188
2017-11-12T12:11:14.143Z,164
2017-11-12T12:12:14.834Z,152
2017-11-12T12:13:15.447Z,144
2017-11-12T12:14:16.063Z,144
2017-11-12T12:15:16.677Z,140
2017-11-12T12:16:17.326Z,124
2017-11-12T12:17:17.934Z,120
2017-11-12T12:18:18.548Z,116
2017-11-12T12:19:19.160Z,112
2017-11-12T12:20:19.773Z,100
2017-11-12T12:21:20.380Z,92
2017-11-12T12:22:20.996Z,84
2017-11-12T12:23:21.604Z,88
2017-11-12T12:24:22.249Z,92
2017-11-12T12:25:22.896Z,100
2017-11-12T12:26:23.503Z,104
2017-11-12T12:27:24.145Z,100
2017-11-12T12:28:24.756Z,96
2017-11-12T12:29:25.396Z,96
2017-11-12T12:30:26.013Z,100
2017-11-12T12:31:26.622Z,96
2017-11-12T12:32:27.229Z,100
2017-11-12T12:33:27.845Z,104
2017-11-12T12:34:28.449Z,112
2017-11-12T12:35:29.084Z,120
2017-11-12T12:36:29.703Z,128
2017-11-12T12:37:30.365Z,136
2017-11-12T12:38:30.975Z,128
2017-11-12T12:39:31.588Z,120
2017-11-12T12:40:32.196Z,112
2017-11-12T12:41:32.836Z,100
2017-11-12T12:42:33.448Z,92
2017-11-12T12:43:34.060Z,88
2017-11-12T12:44:34.666Z,92
2017-11-12T12:45:35.275Z,108
2017-11-12T12:46:35.887Z,140
2017-11-12T12:47:36.506Z,152
2017-11-12T12:48:37.113Z,172
2017-11-12T12:49:37.723Z,184
2017-11-12T12:50:38.334Z,200
2017-11-12T12:51:38.949Z,192
2017-11-12T12:52:39.564Z,184
2017-11-12T12:53:40.172Z,176
2017-11-12T12:54:40.783Z,172
2017-11-12T12:55:41.398Z,160
2017-11-12T12:56:42.005Z,148
2017-11-12T12:57:42.615Z,132
2017-11-12T12:58:43.228Z,120
2017-11-12T12:59:43.837Z,108
2017-11-12T13:00:44.445Z,100
2017-11-12T13:01:45.054Z,88
2017-11-12T13:02:45.663Z,88
2017-11-12T13:03:46.272Z,88
2017-11-12T13:04:46.879Z,84
2017-11-12T13:05:47.517Z,80
2017-11-12T13:06:48.126Z,76
2017-11-12T13:07:48.735Z,76
2017-11-12T13:08:49.341Z,72
2017-11-12T13:09:49.958Z,68
2017-11-12T13:10:50.559Z,64
2017-11-12T13:11:51.168Z,56
2017-11-12T13:12:51.785Z,52
2017-11-12T13:13:52.384Z,56
2017-11-12T13:14:52.993Z,56
2017-11-12T13:15:53.601Z,52
2017-11-12T13:16:54.213Z,60
2017-11-12T13:17:54.856Z,64
2017-11-12T13:18:55.493Z,64
2017-11-12T13:19:56.102Z,68
2017-11-12T13:20:56.710Z,72
2017-11-12T13:21:57.328Z,72
2017-11-12T13:22:57.962Z,68
2017-11-12T13:23:58.570Z,64
2017-11-12T13:24:59.176Z,56
2017-11-12T13:25:59.784Z,52
2017-11-12T13:27:00.422Z,56
2017-11-12T13:28:01.036Z,56
2017-11-12T13:29:01.644Z,60
2017-11-12T13:30:02.261Z,56
2017-11-12T13:31:02.863Z,52
2017-11-12T13:32:03.476Z,48
2017-11-12T13:33:04.120Z,44
2017-11-12T13:34:04.724Z,44
2017-11-12T13:35:05.333Z,44
2017-11-12T13:36:05.940Z,40
2017-11-12T13:37:06.577Z,40
2017-11-12T13:38:07.185Z,44
2017-11-12T13:39:07.798Z,44
2017-11-12T13:40:08.412Z,44
2017-11-12T13:41:09.012Z,44
2017-11-12T13:42:09.651Z,40
2017-11-12T13:43:10.295Z,44
2017-11-12T13:44:10.899Z,44
2017-11-12T13:45:11.505Z,60
2017-11-12T13:46:12.114Z,60
2017-11-12T13:47:12.721Z,60
2017-11-12T13:48:13.332Z,60
2017-11-12T13:49:13.943Z,64
2017-11-12T13:50:14.547Z,60
2017-11-12T13:51:15.154Z,56
2017-11-12T13:52:15.768Z,56
2017-11-12T13:53:16.379Z,56
2017-11-12T13:54:16.982Z,52
2017-11-12T13:55:17.590Z,48
2017-11-12T13:56:18.199Z,52
2017-11-12T13:57:18.812Z,48
2017-11-12T13:58:19.416Z,44
2017-11-12T13:59:20.053Z,40
2017-11-12T14:00:20.666Z,40
2017-11-12T14:01:21.271Z,36
2017-11-12T14:02:21.880Z,40
2017-11-12T14:03:22.486Z,48
2017-11-12T14:04:23.095Z,44
2017-11-12T14:05:23.705Z,40
2017-11-12T14:06:24.358Z,44
2017-11-12T14:07:24.976Z,44
2017-11-12T14:08:25.609Z,48
2017-11-12T14:09:26.217Z,48
2017-11-12T14:10:26.824Z,44
2017-11-12T14:11:27.433Z,44
2017-11-12T14:12:28.040Z,36
2017-11-12T14:13:28.647Z,32
2017-11-12T14:14:29.264Z,24
2017-11-12T14:15:29.863Z,24
2017-11-12T14:16:30.473Z,24
2017-11-12T14:17:31.087Z,24
2017-11-12T14:18:31.692Z,28
2017-11-12T14:19:32.302Z,28
2017-11-12T14:20:32.912Z,24
2017-11-12T14:21:33.521Z,24
2017-11-12T14:22:34.125Z,24
2017-11-12T14:23:34.740Z,28
2017-11-12T14:24:35.343Z,32
2017-11-12T14:25:35.951Z,36